createdAt,value
2018-07-21T00:00:17.149Z,100.00
2018-07-21T00:02:45.222Z,100.00
2018-07-21T00:05:13.252Z,100.00
2018-07-21T00:07:41.493Z,100.00
2018-07-21T00:10:09.630Z,100.00
2018-07-21T00:12:37.745Z,100.00
2018-07-21T00:15:05.936Z,100.00
2018-07-21T00:17:33.992Z,100.00
2018-07-21T00:20:02.126Z,100.00
2018-07-21T00:22:30.204Z,100.00
2018-07-21T00:24:58.381Z,100.00
2018-07-21T00:27:26.607Z,100.00
2018-07-21T00:29:54.772Z,100.00
2018-07-21T00:32:22.824Z,100.00
2018-07-21T00:34:50.810Z,100.00
2018-07-21T00:37:18.868Z,100.00
2018-07-21T00:39:46.929Z,100.00
2018-07-21T00:42:15.093Z,100.00
2018-07-21T00:44:43.296Z,100.00
2018-07-21T00:47:11.442Z,100.00
2018-07-21T00:49:39.505Z,100.00
2018-07-21T00:52:07.600Z,100.00
2018-07-21T00:54:35.692Z,100.00
2018-07-21T00:57:03.723Z,100.00
2018-07-21T00:59:31.877Z,100.00
2018-07-21T01:01:59.953Z,100.00
2018-07-21T01:04:27.994Z,100.00
2018-07-21T01:06:56.088Z,100.00
2018-07-21T01:09:24.115Z,100.00
2018-07-21T01:11:52.185Z,100.00
2018-07-21T01:14:20.352Z,100.00
2018-07-21T01:16:48.424Z,100.00
2018-07-21T01:19:16.445Z,100.00
2018-07-21T01:21:44.524Z,100.00
2018-07-21T01:24:13.559Z,100.00
2018-07-21T01:26:41.624Z,100.00
2018-07-21T01:29:09.662Z,100.00
2018-07-21T01:31:37.709Z,100.00
2018-07-21T01:34:05.795Z,100.00
2018-07-21T01:36:33.798Z,100.00
2018-07-21T01:39:01.807Z,100.00
2018-07-21T01:41:29.952Z,100.00
2018-07-21T01:43:58.059Z,100.00
2018-07-21T01:46:26.139Z,100.00
2018-07-21T01:48:54.304Z,100.00
2018-07-21T01:51:22.386Z,100.00
2018-07-21T01:53:50.446Z,100.00
2018-07-21T01:56:18.549Z,100.00
2018-07-21T01:58:46.658Z,100.00
2018-07-21T02:01:14.707Z,100.00
2018-07-21T02:03:45.911Z,100.00
2018-07-21T02:06:14.073Z,100.00
2018-07-21T02:08:42.277Z,100.00
2018-07-21T02:11:10.520Z,100.00
2018-07-21T02:13:38.708Z,100.00
2018-07-21T02:16:06.747Z,100.00
2018-07-21T02:18:34.852Z,100.00
2018-07-21T02:21:03.159Z,100.00
2018-07-21T02:23:31.242Z,100.00
2018-07-21T02:25:59.403Z,100.00
2018-07-21T02:28:27.477Z,100.00
2018-07-21T02:30:55.523Z,100.00
2018-07-21T02:33:23.809Z,100.00
2018-07-21T02:35:52.132Z,100.00
2018-07-21T02:38:20.196Z,100.00
2018-07-21T02:40:48.213Z,100.00
2018-07-21T02:43:16.264Z,100.00
2018-07-21T02:45:44.256Z,100.00
2018-07-21T02:48:12.311Z,100.00
2018-07-21T02:50:40.330Z,100.00
2018-07-21T02:53:08.342Z,100.00
2018-07-21T02:55:36.463Z,100.00
2018-07-21T02:58:04.480Z,100.00
2018-07-21T03:00:32.582Z,100.00
2018-07-21T03:03:00.702Z,100.00
2018-07-21T03:05:28.974Z,100.00
2018-07-21T03:07:57.166Z,100.00
2018-07-21T03:10:25.321Z,100.00
2018-07-21T03:12:53.519Z,100.00
2018-07-21T03:15:21.568Z,100.00
2018-07-21T03:17:49.650Z,100.00
2018-07-21T03:20:17.731Z,100.00
2018-07-21T03:22:45.747Z,100.00
2018-07-21T03:25:13.854Z,100.00
2018-07-21T03:27:41.937Z,100.00
2018-07-21T03:30:10.068Z,100.00
2018-07-21T03:32:38.129Z,100.00
2018-07-21T03:35:06.207Z,98.91
2018-07-21T03:37:34.283Z,93.13
2018-07-21T03:40:02.529Z,87.52
2018-07-21T03:42:30.553Z,83.92
2018-07-21T03:44:58.558Z,80.76
2018-07-21T03:47:26.596Z,78.09
2018-07-21T03:49:54.651Z,77.19
2018-07-21T03:52:22.748Z,74.42
2018-07-21T03:54:50.784Z,73.07
2018-07-21T03:57:18.821Z,71.01
2018-07-21T03:59:46.900Z,69.18
2018-07-21T04:02:15.168Z,67.95
2018-07-21T04:04:43.358Z,69.31
2018-07-21T04:07:11.756Z,67.60
2018-07-21T04:09:39.861Z,68.52
2018-07-21T04:12:07.967Z,67.41
2018-07-21T04:14:36.060Z,67.73
2018-07-21T04:17:04.352Z,65.18
2018-07-21T04:19:32.520Z,64.69
2018-07-21T04:22:00.869Z,65.72
2018-07-21T04:24:29.326Z,65.58
2018-07-21T04:26:57.504Z,66.64
2018-07-21T04:29:25.562Z,66.38
2018-07-21T04:31:53.817Z,66.17
2018-07-21T04:34:22.045Z,66.31
2018-07-21T04:36:50.438Z,66.40
2018-07-21T04:39:19.157Z,67.35
2018-07-21T04:41:47.997Z,65.73
2018-07-21T04:44:16.322Z,65.44
2018-07-21T04:46:44.736Z,66.41
2018-07-21T04:49:13.503Z,68.33
2018-07-21T04:51:42.087Z,64.47
2018-07-21T04:54:10.629Z,64.24
2018-07-21T04:56:39.028Z,64.99
2018-07-21T04:59:07.543Z,64.73
2018-07-21T05:01:36.010Z,65.67
2018-07-21T05:04:04.636Z,66.95
2018-07-21T05:06:33.028Z,68.17
2018-07-21T05:09:01.577Z,68.77
2018-07-21T05:11:30.190Z,67.59
2018-07-21T05:13:58.627Z,67.36
2018-07-21T05:16:27.490Z,65.60
2018-07-21T05:18:56.027Z,66.51
2018-07-21T05:21:24.452Z,67.82
2018-07-21T05:23:52.925Z,67.51
2018-07-21T05:26:21.290Z,66.47
2018-07-21T05:28:49.666Z,69.13
2018-07-21T05:31:18.287Z,70.02
2018-07-21T05:33:46.747Z,70.60
2018-07-21T05:36:15.104Z,68.10
2018-07-21T05:38:43.529Z,68.84
2018-07-21T05:41:12.073Z,68.05
2018-07-21T05:43:40.801Z,67.41
2018-07-21T05:46:09.424Z,66.31
2018-07-21T05:51:05.481Z,66.71
2018-07-21T05:53:33.966Z,67.72
2018-07-21T05:56:02.166Z,66.16
2018-07-21T05:58:30.220Z,66.58
2018-07-21T06:00:58.270Z,67.34
2018-07-21T06:03:26.676Z,68.82
2018-07-21T06:05:55.037Z,67.47
2018-07-21T06:08:23.416Z,67.16
2018-07-21T06:10:51.847Z,65.15
2018-07-21T06:13:20.346Z,65.63
2018-07-21T06:15:48.920Z,67.17
2018-07-21T06:18:17.401Z,67.85
2018-07-21T06:20:45.860Z,67.70
2018-07-21T06:23:14.084Z,64.62
2018-07-21T06:25:42.291Z,67.93
2018-07-21T06:28:10.434Z,67.35
2018-07-21T06:30:38.530Z,67.00
2018-07-21T06:33:06.798Z,64.53
2018-07-21T06:35:35.037Z,63.46
2018-07-21T06:38:03.052Z,63.43
2018-07-21T06:40:31.188Z,65.02
2018-07-21T06:42:59.352Z,63.80
2018-07-21T06:45:27.443Z,65.38
2018-07-21T06:47:55.719Z,66.30
2018-07-21T06:50:23.970Z,64.25
2018-07-21T06:52:52.013Z,63.79
2018-07-21T06:55:20.221Z,61.38
2018-07-21T06:57:48.539Z,60.88
2018-07-21T07:00:16.924Z,61.58
2018-07-21T07:02:45.366Z,61.73
2018-07-21T07:05:13.983Z,62.78
2018-07-21T07:07:42.345Z,60.19
2018-07-21T07:10:10.900Z,57.88
2018-07-21T07:12:39.387Z,58.84
2018-07-21T07:15:07.884Z,58.78
2018-07-21T07:17:36.451Z,57.42
2018-07-21T07:20:05.485Z,58.08
2018-07-21T07:22:34.304Z,58.22
2018-07-21T07:25:02.965Z,58.13
2018-07-21T07:27:31.822Z,52.97
2018-07-21T07:30:00.659Z,55.79
2018-07-21T07:32:32.610Z,48.58
2018-07-21T07:35:01.206Z,49.69
2018-07-21T07:37:30.524Z,51.17
2018-07-21T07:39:58.976Z,46.96
2018-07-21T07:42:27.527Z,45.04
2018-07-21T07:44:56.233Z,47.99
2018-07-21T07:47:24.941Z,48.59
2018-07-21T07:49:53.551Z,51.86
2018-07-21T07:52:22.103Z,49.93
2018-07-21T07:54:50.822Z,51.04
2018-07-21T07:57:19.131Z,48.99
2018-07-21T07:59:47.323Z,48.54
2018-07-21T08:02:15.640Z,45.68
2018-07-21T08:04:44.366Z,48.70
2018-07-21T08:07:12.989Z,49.69
2018-07-21T08:09:41.391Z,44.35
2018-07-21T08:12:09.924Z,45.26
2018-07-21T08:14:38.530Z,48.87
2018-07-21T08:17:06.986Z,48.72
2018-07-21T08:19:35.375Z,46.93
2018-07-21T08:22:03.983Z,46.27
2018-07-21T08:24:32.443Z,45.66
2018-07-21T08:27:00.647Z,44.77
2018-07-21T08:29:28.956Z,45.16
2018-07-21T08:31:57.226Z,43.45
2018-07-21T08:34:25.492Z,40.85
2018-07-21T08:36:54.276Z,46.53
2018-07-21T08:39:24.857Z,43.78
2018-07-21T08:41:53.349Z,40.41
2018-07-21T08:44:21.689Z,43.16
2018-07-21T08:46:50.179Z,46.71
2018-07-21T08:49:18.660Z,44.09
2018-07-21T08:51:46.997Z,47.48
2018-07-21T08:54:15.354Z,40.76
2018-07-21T08:56:43.836Z,45.14
2018-07-21T08:59:12.072Z,48.10
2018-07-21T09:01:40.267Z,45.10
2018-07-21T09:04:08.763Z,43.56
2018-07-21T09:06:37.186Z,48.16
2018-07-21T09:09:09.359Z,42.85
2018-07-21T09:11:37.621Z,46.99
2018-07-21T09:14:05.789Z,46.76
2018-07-21T09:16:34.154Z,44.94
2018-07-21T09:19:02.634Z,43.49
2018-07-21T09:21:30.952Z,46.07
2018-07-21T09:23:59.152Z,41.75
2018-07-21T09:26:27.361Z,45.01
2018-07-21T09:28:55.830Z,43.05
2018-07-21T09:31:24.093Z,44.52
2018-07-21T09:33:52.701Z,44.43
2018-07-21T09:36:21.479Z,44.67
2018-07-21T09:38:50.807Z,41.51
2018-07-21T09:41:19.424Z,45.95
2018-07-21T09:43:47.809Z,47.66
2018-07-21T09:46:15.978Z,44.22
2018-07-21T09:48:46.308Z,43.79
2018-07-21T09:51:14.652Z,42.17
2018-07-21T09:53:43.000Z,41.61
2018-07-21T09:56:11.502Z,43.01
2018-07-21T09:58:39.879Z,43.07
2018-07-21T10:01:08.184Z,43.05
2018-07-21T10:03:36.533Z,42.01
2018-07-21T10:06:04.794Z,43.13
2018-07-21T10:08:34.170Z,41.74
2018-07-21T10:11:02.506Z,42.84
2018-07-21T10:13:30.631Z,42.94
2018-07-21T10:15:59.037Z,44.83
2018-07-21T10:18:27.393Z,43.72
2018-07-21T10:20:55.573Z,44.85
2018-07-21T10:23:23.880Z,44.56
2018-07-21T10:25:57.548Z,48.14
2018-07-21T10:28:31.806Z,44.02
2018-07-21T10:30:59.935Z,47.02
2018-07-21T10:33:28.210Z,43.47
2018-07-21T10:35:56.646Z,44.30
2018-07-21T10:38:25.132Z,40.42
2018-07-21T10:40:53.958Z,37.78
2018-07-21T10:43:22.424Z,38.82
2018-07-21T10:45:50.719Z,43.94
2018-07-21T10:48:21.022Z,37.33
2018-07-21T10:50:49.474Z,40.48
2018-07-21T10:53:18.078Z,39.78
2018-07-21T10:55:47.914Z,39.07
2018-07-21T10:58:16.525Z,42.20
2018-07-21T11:00:45.056Z,36.84
2018-07-21T11:03:13.694Z,43.01
2018-07-21T11:05:42.775Z,36.93
2018-07-21T11:08:11.363Z,35.53
2018-07-21T11:10:40.260Z,40.67
2018-07-21T11:13:08.768Z,41.30
2018-07-21T11:15:37.380Z,39.18
2018-07-21T11:18:06.977Z,38.89
2018-07-21T11:20:35.748Z,39.68
2018-07-21T11:23:04.518Z,41.39
2018-07-21T11:25:32.957Z,37.06
2018-07-21T11:28:01.450Z,39.69
2018-07-21T11:30:29.849Z,39.04
2018-07-21T11:32:58.499Z,38.63
2018-07-21T11:35:27.100Z,41.11
2018-07-21T11:37:56.061Z,40.25
2018-07-21T11:40:24.884Z,37.11
2018-07-21T11:42:53.744Z,36.75
2018-07-21T11:45:22.261Z,38.10
2018-07-21T11:47:50.853Z,43.01
2018-07-21T11:50:19.243Z,37.49
2018-07-21T11:52:47.754Z,35.16
2018-07-21T11:55:16.436Z,38.52
2018-07-21T11:57:45.031Z,34.54
2018-07-21T12:00:13.581Z,39.95
2018-07-21T12:02:42.039Z,39.30
2018-07-21T12:05:10.809Z,37.82
2018-07-21T12:07:40.095Z,40.83
2018-07-21T12:10:08.589Z,35.54
2018-07-21T12:12:36.851Z,40.16
2018-07-21T12:15:05.482Z,34.63
2018-07-21T12:17:33.870Z,39.78
2018-07-21T12:20:02.187Z,40.04
2018-07-21T12:22:30.620Z,38.11
2018-07-21T12:24:58.993Z,39.01
2018-07-21T12:27:28.040Z,37.64
2018-07-21T12:29:57.043Z,38.32
2018-07-21T12:32:26.401Z,39.36
2018-07-21T12:34:59.908Z,39.06
2018-07-21T12:37:30.932Z,37.34
2018-07-21T12:39:59.795Z,36.84
2018-07-21T12:42:28.526Z,38.98
2018-07-21T12:44:57.145Z,38.10
2018-07-21T12:47:25.914Z,35.11
2018-07-21T12:49:54.461Z,36.95
2018-07-21T12:52:23.035Z,38.96
2018-07-21T12:54:51.394Z,40.14
2018-07-21T12:57:19.974Z,38.59
2018-07-21T12:59:48.868Z,36.56
2018-07-21T13:02:17.424Z,35.97
2018-07-21T13:04:45.877Z,39.37
2018-07-21T13:07:14.702Z,37.14
2018-07-21T13:09:43.799Z,39.58
2018-07-21T13:12:12.791Z,37.78
2018-07-21T13:14:41.711Z,39.05
2018-07-21T13:17:11.236Z,35.04
2018-07-21T13:19:40.727Z,36.76
2018-07-21T13:22:09.945Z,40.21
2018-07-21T13:24:38.560Z,36.58
2018-07-21T13:27:07.632Z,38.02
2018-07-21T13:29:36.467Z,36.86
2018-07-21T13:32:04.952Z,38.82
2018-07-21T13:34:33.527Z,37.08
2018-07-21T13:37:02.477Z,37.67
2018-07-21T13:39:31.206Z,38.49
2018-07-21T13:41:59.821Z,38.42
2018-07-21T13:44:28.462Z,40.25
2018-07-21T13:46:57.229Z,39.85
2018-07-21T13:49:26.020Z,38.16
2018-07-21T13:51:54.780Z,35.77
2018-07-21T13:54:23.190Z,41.41
2018-07-21T13:56:52.138Z,38.35
2018-07-21T13:59:21.036Z,38.85
2018-07-21T14:01:50.278Z,40.76
2018-07-21T14:04:19.128Z,37.28
2018-07-21T14:06:47.612Z,39.22
2018-07-21T14:09:16.195Z,38.94
2018-07-21T14:11:44.631Z,40.06
2018-07-21T14:14:13.624Z,37.19
2018-07-21T14:16:42.163Z,42.91
2018-07-21T14:19:10.744Z,39.88
2018-07-21T14:21:39.159Z,40.29
2018-07-21T14:24:07.849Z,43.90
2018-07-21T14:26:36.388Z,37.07
2018-07-21T14:29:05.231Z,40.69
2018-07-21T14:31:33.675Z,39.40
2018-07-21T14:34:02.588Z,39.08
2018-07-21T14:36:31.721Z,39.79
2018-07-21T14:39:00.108Z,35.58
2018-07-21T14:41:28.573Z,36.08
2018-07-21T14:43:57.146Z,35.52
2018-07-21T14:46:25.656Z,36.50
2018-07-21T14:48:54.183Z,36.50
2018-07-21T14:51:22.807Z,39.98
2018-07-21T14:53:51.280Z,39.16
2018-07-21T14:56:19.613Z,37.19
2018-07-21T14:58:48.153Z,39.28
2018-07-21T15:01:16.844Z,42.03
2018-07-21T15:03:45.417Z,39.89
2018-07-21T15:06:14.371Z,39.20
2018-07-21T15:08:43.012Z,37.79
2018-07-21T15:11:11.640Z,39.77
2018-07-21T15:13:40.482Z,41.05
2018-07-21T15:16:08.971Z,39.71
2018-07-21T15:18:37.410Z,37.50
2018-07-21T15:21:06.059Z,37.88
2018-07-21T15:23:34.505Z,39.75
2018-07-21T15:26:03.063Z,41.20
2018-07-21T15:28:31.874Z,37.12
2018-07-21T15:31:00.409Z,39.88
2018-07-21T15:33:29.078Z,36.72
2018-07-21T15:35:57.792Z,37.80
2018-07-21T15:38:26.309Z,40.16
2018-07-21T15:40:54.792Z,43.00
2018-07-21T15:43:23.354Z,40.70
2018-07-21T15:45:52.270Z,43.29
2018-07-21T15:48:21.086Z,38.55
2018-07-21T15:50:49.535Z,40.95
2018-07-21T15:53:18.072Z,40.06
2018-07-21T15:55:46.572Z,42.36
2018-07-21T15:58:15.143Z,44.49
2018-07-21T16:00:43.572Z,45.54
2018-07-21T16:03:12.204Z,42.76
2018-07-21T16:05:40.757Z,45.83
2018-07-21T16:08:09.319Z,45.58
2018-07-21T16:10:37.850Z,47.64
2018-07-21T16:13:06.964Z,42.90
2018-07-21T16:15:35.546Z,49.50
2018-07-21T16:18:04.251Z,49.20
2018-07-21T16:20:33.141Z,44.91
2018-07-21T16:23:01.903Z,48.26
2018-07-21T16:25:31.526Z,47.58
2018-07-21T16:28:00.696Z,48.22
2018-07-21T16:30:29.331Z,49.67
2018-07-21T16:32:57.586Z,51.06
2018-07-21T16:35:25.771Z,46.78
2018-07-21T16:37:54.562Z,50.52
2018-07-21T16:40:23.156Z,49.80
2018-07-21T16:42:51.487Z,51.64
2018-07-21T16:45:19.788Z,50.13
2018-07-21T16:47:48.106Z,52.75
2018-07-21T16:50:16.553Z,54.27
2018-07-21T16:52:45.399Z,54.87
2018-07-21T16:55:15.530Z,56.53
2018-07-21T16:57:44.172Z,57.99
2018-07-21T17:00:12.762Z,57.93
2018-07-21T17:02:41.177Z,58.80
2018-07-21T17:05:09.783Z,58.98
2018-07-21T17:07:38.488Z,59.79
2018-07-21T17:10:07.080Z,61.00
2018-07-21T17:12:35.640Z,59.86
2018-07-21T17:15:04.533Z,61.31
2018-07-21T17:17:33.040Z,62.09
2018-07-21T17:20:01.442Z,62.35
2018-07-21T17:22:33.545Z,63.91
2018-07-21T17:25:03.768Z,64.26
2018-07-21T17:27:33.628Z,64.65
2018-07-21T17:30:02.130Z,65.89
2018-07-21T17:32:30.582Z,65.85
2018-07-21T17:34:58.943Z,65.42
2018-07-21T17:37:27.278Z,66.37
2018-07-21T17:39:55.684Z,66.52
2018-07-21T17:42:24.089Z,67.48
2018-07-21T17:44:52.499Z,68.39
2018-07-21T17:47:20.984Z,70.03
2018-07-21T17:49:49.306Z,68.97
2018-07-21T17:52:17.719Z,68.93
2018-07-21T17:54:47.884Z,70.29
2018-07-21T17:57:16.172Z,70.49
2018-07-21T17:59:44.451Z,72.29
2018-07-21T18:02:13.541Z,71.55
2018-07-21T18:04:41.918Z,70.37
2018-07-21T18:07:10.367Z,70.68
2018-07-21T18:09:39.080Z,72.79
2018-07-21T18:12:07.441Z,73.16
2018-07-21T18:14:36.208Z,72.77
2018-07-21T18:17:05.057Z,73.32
2018-07-21T18:19:33.481Z,72.80
2018-07-21T18:22:02.023Z,72.15
2018-07-21T18:24:30.666Z,73.35
2018-07-21T18:26:59.148Z,73.83
2018-07-21T18:29:27.569Z,73.15
2018-07-21T18:31:55.962Z,73.62
2018-07-21T18:34:24.294Z,75.25
2018-07-21T18:36:52.569Z,74.42
2018-07-21T18:39:20.989Z,74.28
2018-07-21T18:41:49.263Z,75.19
2018-07-21T18:44:17.687Z,75.75
2018-07-21T18:46:47.011Z,75.86
2018-07-21T18:49:15.390Z,75.69
2018-07-21T18:51:43.808Z,74.30
2018-07-21T18:54:12.252Z,75.29
2018-07-21T18:56:40.649Z,75.48
2018-07-21T18:59:09.217Z,75.38
2018-07-21T19:01:38.340Z,75.41
2018-07-21T19:04:06.875Z,78.54
2018-07-21T19:06:35.468Z,77.27
2018-07-21T19:09:06.057Z,76.55
2018-07-21T19:11:34.386Z,76.87
2018-07-21T19:14:02.782Z,77.35
2018-07-21T19:16:36.753Z,76.81
2018-07-21T19:19:05.038Z,77.20
2018-07-21T19:21:33.589Z,78.07
2018-07-21T19:24:02.217Z,79.31
2018-07-21T19:26:36.184Z,79.80
2018-07-21T19:29:04.779Z,79.27
2018-07-21T19:31:33.259Z,78.56
2018-07-21T19:34:01.773Z,78.85
2018-07-21T19:36:30.322Z,80.04
2018-07-21T19:38:58.807Z,79.54
2018-07-21T19:41:32.902Z,80.99
2018-07-21T19:44:01.260Z,80.30
2018-07-21T19:46:29.809Z,78.73
2018-07-21T19:48:58.366Z,78.56
2018-07-21T19:51:26.803Z,78.77
2018-07-21T19:53:55.141Z,77.77
2018-07-21T19:56:23.651Z,77.61
2018-07-21T19:58:52.171Z,77.65
2018-07-21T20:01:20.695Z,77.54
2018-07-21T20:03:49.051Z,77.16
2018-07-21T20:06:17.329Z,78.83
2018-07-21T20:08:45.707Z,80.26
2018-07-21T20:11:13.988Z,78.97
2018-07-21T20:13:42.376Z,79.83
2018-07-21T20:16:11.218Z,79.41
2018-07-21T20:18:39.832Z,78.51
2018-07-21T20:21:08.267Z,79.29
2018-07-21T20:23:37.022Z,80.18
2018-07-21T20:26:05.432Z,77.25
2018-07-21T20:28:34.098Z,80.25
2018-07-21T20:31:02.538Z,80.87
2018-07-21T20:33:31.110Z,79.51
2018-07-21T20:35:59.480Z,79.44
2018-07-21T20:38:27.974Z,79.52
2018-07-21T20:40:56.540Z,80.86
2018-07-21T20:43:24.979Z,80.74
2018-07-21T20:45:53.369Z,82.21
2018-07-21T20:48:21.912Z,81.61
2018-07-21T20:50:50.286Z,81.01
2018-07-21T20:53:18.625Z,79.49
2018-07-21T20:55:47.230Z,75.17
2018-07-21T20:58:15.460Z,74.73
2018-07-21T21:00:43.838Z,76.27
2018-07-21T21:03:12.487Z,79.97
2018-07-21T21:05:40.807Z,81.56
2018-07-21T21:08:09.117Z,82.35
2018-07-21T21:10:37.491Z,83.10
2018-07-21T21:13:06.185Z,83.17
2018-07-21T21:15:34.598Z,83.49
2018-07-21T21:18:02.918Z,83.37
2018-07-21T21:20:31.215Z,82.93
2018-07-21T21:22:59.667Z,83.65
2018-07-21T21:25:28.163Z,83.51
2018-07-21T21:27:56.459Z,83.60
2018-07-21T21:30:24.904Z,84.50
2018-07-21T21:32:53.310Z,84.47
2018-07-21T21:35:21.696Z,84.92
2018-07-21T21:37:50.020Z,83.85
2018-07-21T21:40:18.413Z,84.01
2018-07-21T21:42:46.666Z,82.11
2018-07-21T21:45:14.952Z,85.21
2018-07-21T21:47:43.327Z,85.04
2018-07-21T21:50:11.625Z,84.54
2018-07-21T21:52:39.824Z,85.43
2018-07-21T21:55:08.295Z,86.16
2018-07-21T21:57:36.527Z,83.02
2018-07-21T22:00:08.454Z,85.08
2018-07-21T22:02:36.884Z,85.33
2018-07-21T22:05:05.480Z,85.18
2018-07-21T22:07:33.870Z,84.42
2018-07-21T22:10:02.242Z,82.67
2018-07-21T22:12:30.730Z,85.46
2018-07-21T22:14:59.296Z,86.85
2018-07-21T22:17:27.674Z,86.39
2018-07-21T22:19:56.115Z,85.08
2018-07-21T22:22:24.531Z,86.28
2018-07-21T22:24:52.850Z,87.66
2018-07-21T22:27:21.137Z,88.43
2018-07-21T22:29:49.559Z,88.89
2018-07-21T22:32:17.940Z,87.96
2018-07-21T22:34:46.226Z,88.59
2018-07-21T22:37:14.519Z,89.29
2018-07-21T22:39:42.871Z,90.72
2018-07-21T22:42:11.209Z,90.17
2018-07-21T22:44:39.645Z,91.00
2018-07-21T22:47:08.027Z,91.53
2018-07-21T22:49:36.264Z,90.27
2018-07-21T22:52:04.832Z,90.74
2018-07-21T22:54:33.320Z,90.25
2018-07-21T22:57:01.678Z,90.25
2018-07-21T22:59:30.092Z,90.78
2018-07-21T23:01:58.526Z,91.28
2018-07-21T23:04:27.022Z,91.30
2018-07-21T23:06:55.463Z,90.58
2018-07-21T23:09:23.820Z,91.09
2018-07-21T23:11:52.321Z,90.76
2018-07-21T23:14:21.137Z,90.36
2018-07-21T23:16:49.656Z,91.61
2018-07-21T23:19:18.139Z,89.97
2018-07-21T23:21:46.543Z,91.09
2018-07-21T23:24:15.238Z,92.11
2018-07-21T23:26:43.598Z,91.97
2018-07-21T23:29:11.921Z,90.80
2018-07-21T23:31:40.293Z,91.84
2018-07-21T23:34:08.538Z,93.17
2018-07-21T23:36:36.860Z,91.46
2018-07-21T23:39:07.841Z,93.01
2018-07-21T23:41:36.169Z,91.96
2018-07-21T23:44:04.475Z,91.34
2018-07-21T23:46:32.647Z,92.47
2018-07-21T23:49:00.902Z,92.79
2018-07-21T23:51:29.152Z,92.27
2018-07-21T23:53:57.338Z,92.13
2018-07-21T23:56:25.544Z,92.95
2018-07-21T23:58:53.804Z,94.66
